sensor_id;sensor_type;location;lat;lon;timestamp;P1;durP1;ratioP1;P2;durP2;ratioP2
18507;SDS011;9383;50.928;12.116;2022-07-17T00:00:42;2.45;;;1.10;;
18507;SDS011;9383;50.928;12.116;2022-07-17T00:03:09;2.42;;;1.10;;
18507;SDS011;9383;50.928;12.116;2022-07-17T00:05:36;2.83;;;1.23;;
18507;SDS011;9383;50.928;12.116;2022-07-17T00:08:03;1.00;;;1.00;;
18507;SDS011;9383;50.928;12.116;2022-07-17T00:10:32;3.22;;;1.20;;
18507;SDS011;9383;50.928;12.116;2022-07-17T00:12:59;2.78;;;1.30;;
18507;SDS011;9383;50.928;12.116;2022-07-17T00:15:26;2.75;;;1.20;;
18507;SDS011;9383;50.928;12.116;2022-07-17T00:17:52;2.70;;;1.30;;
18507;SDS011;9383;50.928;12.116;2022-07-17T00:20:18;2.15;;;1.60;;
18507;SDS011;9383;50.928;12.116;2022-07-17T00:22:44;4.25;;;1.30;;
18507;SDS011;9383;50.928;12.116;2022-07-17T00:25:10;1.83;;;1.08;;
18507;SDS011;9383;50.928;12.116;2022-07-17T00:27:37;2.33;;;1.25;;
18507;SDS011;9383;50.928;12.116;2022-07-17T00:30:03;4.28;;;1.40;;
18507;SDS011;9383;50.928;12.116;2022-07-17T00:32:30;4.13;;;1.38;;
18507;SDS011;9383;50.928;12.116;2022-07-17T00:34:57;1.80;;;1.25;;
18507;SDS011;9383;50.928;12.116;2022-07-17T00:37:23;2.03;;;1.15;;
18507;SDS011;9383;50.928;12.116;2022-07-17T00:39:49;2.30;;;1.00;;
18507;SDS011;9383;50.928;12.116;2022-07-17T00:42:15;3.22;;;1.13;;
18507;SDS011;9383;50.928;12.116;2022-07-17T00:44:43;2.20;;;1.45;;
18507;SDS011;9383;50.928;12.116;2022-07-17T00:47:13;1.90;;;1.30;;
18507;SDS011;9383;50.928;12.116;2022-07-17T00:49:42;4.43;;;1.65;;
18507;SDS011;9383;50.928;12.116;2022-07-17T00:52:09;1.83;;;1.10;;
18507;SDS011;9383;50.928;12.116;2022-07-17T00:54:37;1.67;;;1.17;;
18507;SDS011;9383;50.928;12.116;2022-07-17T00:57:06;1.77;;;1.30;;
18507;SDS011;9383;50.928;12.116;2022-07-17T00:59:36;1.20;;;1.10;;
18507;SDS011;9383;50.928;12.116;2022-07-17T01:02:05;3.35;;;1.15;;
18507;SDS011;9383;50.928;12.116;2022-07-17T01:04:34;2.83;;;1.15;;
18507;SDS011;9383;50.928;12.116;2022-07-17T01:07:02;2.42;;;1.20;;
18507;SDS011;9383;50.928;12.116;2022-07-17T01:09:31;3.72;;;1.38;;
18507;SDS011;9383;50.928;12.116;2022-07-17T01:11:58;1.35;;;1.15;;
18507;SDS011;9383;50.928;12.116;2022-07-17T01:14:25;4.15;;;1.30;;
18507;SDS011;9383;50.928;12.116;2022-07-17T01:16:53;2.30;;;1.33;;
18507;SDS011;9383;50.928;12.116;2022-07-17T01:19:21;1.13;;;1.02;;
18507;SDS011;9383;50.928;12.116;2022-07-17T01:21:48;1.92;;;1.10;;
18507;SDS011;9383;50.928;12.116;2022-07-17T01:24:15;2.58;;;1.40;;
18507;SDS011;9383;50.928;12.116;2022-07-17T01:26:43;1.45;;;1.10;;
18507;SDS011;9383;50.928;12.116;2022-07-17T01:29:12;2.63;;;1.27;;
18507;SDS011;9383;50.928;12.116;2022-07-17T01:31:41;3.42;;;1.10;;
18507;SDS011;9383;50.928;12.116;2022-07-17T01:34:09;1.10;;;0.73;;
18507;SDS011;9383;50.928;12.116;2022-07-17T01:36:38;1.60;;;1.15;;
18507;SDS011;9383;50.928;12.116;2022-07-17T01:39:04;1.65;;;1.15;;
18507;SDS011;9383;50.928;12.116;2022-07-17T01:41:30;2.53;;;1.20;;
18507;SDS011;9383;50.928;12.116;2022-07-17T01:43:56;2.15;;;1.55;;
18507;SDS011;9383;50.928;12.116;2022-07-17T01:46:23;4.35;;;1.10;;
18507;SDS011;9383;50.928;12.116;2022-07-17T01:48:49;2.55;;;1.30;;
18507;SDS011;9383;50.928;12.116;2022-07-17T01:51:15;3.92;;;1.30;;
18507;SDS011;9383;50.928;12.116;2022-07-17T01:53:41;2.78;;;1.23;;
18507;SDS011;9383;50.928;12.116;2022-07-17T01:56:07;2.28;;;1.23;;
18507;SDS011;9383;50.928;12.116;2022-07-17T01:58:33;3.28;;;1.40;;
18507;SDS011;9383;50.928;12.116;2022-07-17T02:01:00;3.28;;;1.17;;
18507;SDS011;9383;50.928;12.116;2022-07-17T02:03:26;3.53;;;1.40;;
18507;SDS011;9383;50.928;12.116;2022-07-17T02:05:52;2.08;;;1.52;;
18507;SDS011;9383;50.928;12.116;2022-07-17T02:08:18;2.03;;;1.33;;
18507;SDS011;9383;50.928;12.116;2022-07-17T02:10:44;2.58;;;1.25;;
18507;SDS011;9383;50.928;12.116;2022-07-17T02:13:10;3.00;;;1.55;;
18507;SDS011;9383;50.928;12.116;2022-07-17T02:15:36;3.08;;;1.40;;
18507;SDS011;9383;50.928;12.116;2022-07-17T02:18:02;7.82;;;1.40;;
18507;SDS011;9383;50.928;12.116;2022-07-17T02:20:29;3.33;;;1.40;;
18507;SDS011;9383;50.928;12.116;2022-07-17T02:22:55;1.88;;;1.58;;
18507;SDS011;9383;50.928;12.116;2022-07-17T02:25:21;2.65;;;1.50;;
18507;SDS011;9383;50.928;12.116;2022-07-17T02:27:47;2.45;;;1.08;;
18507;SDS011;9383;50.928;12.116;2022-07-17T02:30:14;3.85;;;1.70;;
18507;SDS011;9383;50.928;12.116;2022-07-17T02:32:43;1.35;;;1.25;;
18507;SDS011;9383;50.928;12.116;2022-07-17T02:35:11;4.28;;;1.42;;
18507;SDS011;9383;50.928;12.116;2022-07-17T02:37:38;2.25;;;1.17;;
18507;SDS011;9383;50.928;12.116;2022-07-17T02:40:07;4.55;;;1.60;;
18507;SDS011;9383;50.928;12.116;2022-07-17T02:42:34;4.13;;;1.42;;
18507;SDS011;9383;50.928;12.116;2022-07-17T02:45:00;2.30;;;1.50;;
18507;SDS011;9383;50.928;12.116;2022-07-17T02:49:55;2.58;;;1.63;;
18507;SDS011;9383;50.928;12.116;2022-07-17T02:52:22;2.58;;;1.70;;
18507;SDS011;9383;50.928;12.116;2022-07-17T02:54:49;2.63;;;1.48;;
18507;SDS011;9383;50.928;12.116;2022-07-17T02:57:15;2.28;;;1.55;;
18507;SDS011;9383;50.928;12.116;2022-07-17T02:59:43;1.23;;;1.08;;
18507;SDS011;9383;50.928;12.116;2022-07-17T03:02:11;3.63;;;1.30;;
18507;SDS011;9383;50.928;12.116;2022-07-17T03:04:37;1.73;;;1.20;;
18507;SDS011;9383;50.928;12.116;2022-07-17T03:07:03;2.65;;;1.35;;
18507;SDS011;9383;50.928;12.116;2022-07-17T03:09:29;2.47;;;1.50;;
18507;SDS011;9383;50.928;12.116;2022-07-17T03:11:55;2.55;;;1.58;;
18507;SDS011;9383;50.928;12.116;2022-07-17T03:14:21;1.83;;;1.40;;
18507;SDS011;9383;50.928;12.116;2022-07-17T03:16:47;1.77;;;1.50;;
18507;SDS011;9383;50.928;12.116;2022-07-17T03:19:13;3.33;;;1.65;;
18507;SDS011;9383;50.928;12.116;2022-07-17T03:21:40;3.13;;;1.48;;
18507;SDS011;9383;50.928;12.116;2022-07-17T03:24:06;2.15;;;1.50;;
18507;SDS011;9383;50.928;12.116;2022-07-17T03:26:32;5.30;;;1.55;;
18507;SDS011;9383;50.928;12.116;2022-07-17T03:28:58;1.40;;;1.30;;
18507;SDS011;9383;50.928;12.116;2022-07-17T03:31:24;3.90;;;1.65;;
18507;SDS011;9383;50.928;12.116;2022-07-17T03:33:51;1.65;;;1.35;;
18507;SDS011;9383;50.928;12.116;2022-07-17T03:36:17;2.97;;;1.73;;
18507;SDS011;9383;50.928;12.116;2022-07-17T03:38:43;1.50;;;1.30;;
18507;SDS011;9383;50.928;12.116;2022-07-17T03:41:09;1.52;;;1.27;;
18507;SDS011;9383;50.928;12.116;2022-07-17T03:43:36;1.98;;;1.50;;
18507;SDS011;9383;50.928;12.116;2022-07-17T03:46:02;2.95;;;1.58;;
18507;SDS011;9383;50.928;12.116;2022-07-17T03:48:28;2.38;;;1.45;;
18507;SDS011;9383;50.928;12.116;2022-07-17T03:50:54;2.25;;;1.27;;
18507;SDS011;9383;50.928;12.116;2022-07-17T03:53:21;2.55;;;1.70;;
18507;SDS011;9383;50.928;12.116;2022-07-17T03:55:47;4.07;;;1.60;;
18507;SDS011;9383;50.928;12.116;2022-07-17T03:58:13;2.08;;;1.88;;
18507;SDS011;9383;50.928;12.116;2022-07-17T04:00:39;4.05;;;1.30;;
18507;SDS011;9383;50.928;12.116;2022-07-17T04:03:06;3.53;;;1.55;;
18507;SDS011;9383;50.928;12.116;2022-07-17T04:05:32;3.30;;;1.85;;
18507;SDS011;9383;50.928;12.116;2022-07-17T04:07:58;1.73;;;1.35;;
18507;SDS011;9383;50.928;12.116;2022-07-17T04:10:24;2.22;;;1.70;;
18507;SDS011;9383;50.928;12.116;2022-07-17T04:12:51;2.78;;;1.70;;
18507;SDS011;9383;50.928;12.116;2022-07-17T04:15:17;2.15;;;1.77;;
18507;SDS011;9383;50.928;12.116;2022-07-17T04:18:03;11.13;;;1.90;;
18507;SDS011;9383;50.928;12.116;2022-07-17T04:20:29;4.28;;;1.67;;
18507;SDS011;9383;50.928;12.116;2022-07-17T04:22:55;3.13;;;1.73;;
18507;SDS011;9383;50.928;12.116;2022-07-17T04:25:21;4.18;;;2.03;;
18507;SDS011;9383;50.928;12.116;2022-07-17T04:27:47;5.63;;;1.92;;
18507;SDS011;9383;50.928;12.116;2022-07-17T04:30:14;3.58;;;1.88;;
18507;SDS011;9383;50.928;12.116;2022-07-17T04:32:40;2.53;;;2.05;;
18507;SDS011;9383;50.928;12.116;2022-07-17T04:35:06;4.90;;;2.17;;
18507;SDS011;9383;50.928;12.116;2022-07-17T04:37:32;2.67;;;2.28;;
18507;SDS011;9383;50.928;12.116;2022-07-17T04:39:58;3.60;;;2.05;;
18507;SDS011;9383;50.928;12.116;2022-07-17T04:42:24;5.78;;;2.53;;
18507;SDS011;9383;50.928;12.116;2022-07-17T04:44:51;4.30;;;2.00;;
18507;SDS011;9383;50.928;12.116;2022-07-17T04:47:17;3.53;;;2.08;;
18507;SDS011;9383;50.928;12.116;2022-07-17T04:49:43;5.85;;;3.00;;
18507;SDS011;9383;50.928;12.116;2022-07-17T04:52:09;4.15;;;2.58;;
18507;SDS011;9383;50.928;12.116;2022-07-17T04:54:35;2.95;;;2.72;;
18507;SDS011;9383;50.928;12.116;2022-07-17T04:57:01;4.22;;;2.63;;
18507;SDS011;9383;50.928;12.116;2022-07-17T04:59:27;3.67;;;2.63;;
18507;SDS011;9383;50.928;12.116;2022-07-17T05:01:53;3.53;;;2.65;;
18507;SDS011;9383;50.928;12.116;2022-07-17T05:04:19;4.88;;;3.05;;
18507;SDS011;9383;50.928;12.116;2022-07-17T05:06:46;5.43;;;2.90;;
18507;SDS011;9383;50.928;12.116;2022-07-17T05:09:12;4.93;;;2.35;;
18507;SDS011;9383;50.928;12.116;2022-07-17T05:11:38;5.65;;;2.72;;
18507;SDS011;9383;50.928;12.116;2022-07-17T05:14:04;4.47;;;2.40;;
18507;SDS011;9383;50.928;12.116;2022-07-17T05:16:30;4.47;;;2.72;;
18507;SDS011;9383;50.928;12.116;2022-07-17T05:18:56;4.35;;;2.85;;
18507;SDS011;9383;50.928;12.116;2022-07-17T05:21:23;3.75;;;2.55;;
18507;SDS011;9383;50.928;12.116;2022-07-17T05:23:49;5.28;;;2.45;;
18507;SDS011;9383;50.928;12.116;2022-07-17T05:26:15;5.55;;;2.92;;
18507;SDS011;9383;50.928;12.116;2022-07-17T05:28:41;3.42;;;2.80;;
18507;SDS011;9383;50.928;12.116;2022-07-17T05:31:07;2.67;;;2.30;;
18507;SDS011;9383;50.928;12.116;2022-07-17T05:33:33;5.88;;;2.97;;
18507;SDS011;9383;50.928;12.116;2022-07-17T05:36:00;4.55;;;2.50;;
18507;SDS011;9383;50.928;12.116;2022-07-17T05:38:27;5.00;;;2.50;;
18507;SDS011;9383;50.928;12.116;2022-07-17T05:40:53;4.68;;;2.55;;
18507;SDS011;9383;50.928;12.116;2022-07-17T05:43:19;5.68;;;2.55;;
18507;SDS011;9383;50.928;12.116;2022-07-17T05:45:45;3.75;;;2.75;;
18507;SDS011;9383;50.928;12.116;2022-07-17T05:48:13;4.50;;;2.80;;
18507;SDS011;9383;50.928;12.116;2022-07-17T05:50:39;4.78;;;2.60;;
18507;SDS011;9383;50.928;12.116;2022-07-17T05:53:05;4.85;;;2.50;;
18507;SDS011;9383;50.928;12.116;2022-07-17T05:55:31;4.55;;;2.25;;
18507;SDS011;9383;50.928;12.116;2022-07-17T05:57:57;5.47;;;2.45;;
18507;SDS011;9383;50.928;12.116;2022-07-17T06:00:23;4.45;;;2.53;;
18507;SDS011;9383;50.928;12.116;2022-07-17T06:02:49;3.30;;;2.10;;
18507;SDS011;9383;50.928;12.116;2022-07-17T06:05:15;2.72;;;2.20;;
18507;SDS011;9383;50.928;12.116;2022-07-17T06:07:41;6.60;;;2.38;;
18507;SDS011;9383;50.928;12.116;2022-07-17T06:10:07;2.55;;;2.35;;
18507;SDS011;9383;50.928;12.116;2022-07-17T06:12:34;6.63;;;2.47;;
18507;SDS011;9383;50.928;12.116;2022-07-17T06:15:00;5.43;;;2.40;;
18507;SDS011;9383;50.928;12.116;2022-07-17T06:17:26;5.78;;;2.30;;
18507;SDS011;9383;50.928;12.116;2022-07-17T06:19:53;2.42;;;1.90;;
18507;SDS011;9383;50.928;12.116;2022-07-17T06:22:20;5.45;;;2.40;;
18507;SDS011;9383;50.928;12.116;2022-07-17T06:24:46;4.18;;;2.08;;
18507;SDS011;9383;50.928;12.116;2022-07-17T06:27:13;4.82;;;2.13;;
18507;SDS011;9383;50.928;12.116;2022-07-17T06:29:40;5.03;;;2.17;;
18507;SDS011;9383;50.928;12.116;2022-07-17T06:32:06;5.22;;;1.98;;
18507;SDS011;9383;50.928;12.116;2022-07-17T06:34:32;2.75;;;2.08;;
18507;SDS011;9383;50.928;12.116;2022-07-17T06:36:58;4.07;;;2.10;;
18507;SDS011;9383;50.928;12.116;2022-07-17T06:39:24;4.45;;;1.52;;
18507;SDS011;9383;50.928;12.116;2022-07-17T06:41:50;5.07;;;1.77;;
18507;SDS011;9383;50.928;12.116;2022-07-17T06:44:16;2.10;;;1.50;;
18507;SDS011;9383;50.928;12.116;2022-07-17T06:46:43;5.50;;;1.77;;
18507;SDS011;9383;50.928;12.116;2022-07-17T06:49:09;3.03;;;1.33;;
18507;SDS011;9383;50.928;12.116;2022-07-17T06:51:35;2.38;;;1.60;;
18507;SDS011;9383;50.928;12.116;2022-07-17T06:54:01;5.45;;;1.70;;
18507;SDS011;9383;50.928;12.116;2022-07-17T06:56:28;4.03;;;1.60;;
18507;SDS011;9383;50.928;12.116;2022-07-17T06:58:54;4.18;;;1.60;;
18507;SDS011;9383;50.928;12.116;2022-07-17T07:01:20;6.72;;;1.77;;
18507;SDS011;9383;50.928;12.116;2022-07-17T07:03:46;3.03;;;1.73;;
18507;SDS011;9383;50.928;12.116;2022-07-17T07:06:12;5.07;;;1.92;;
18507;SDS011;9383;50.928;12.116;2022-07-17T07:08:39;5.10;;;1.90;;
18507;SDS011;9383;50.928;12.116;2022-07-17T07:11:05;5.60;;;1.52;;
18507;SDS011;9383;50.928;12.116;2022-07-17T07:13:31;2.88;;;1.40;;
18507;SDS011;9383;50.928;12.116;2022-07-17T07:15:57;3.65;;;1.60;;
18507;SDS011;9383;50.928;12.116;2022-07-17T07:18:24;4.40;;;1.80;;
18507;SDS011;9383;50.928;12.116;2022-07-17T07:20:51;6.85;;;1.75;;
18507;SDS011;9383;50.928;12.116;2022-07-17T07:23:17;5.00;;;1.50;;
18507;SDS011;9383;50.928;12.116;2022-07-17T07:25:43;3.50;;;2.03;;
18507;SDS011;9383;50.928;12.116;2022-07-17T07:28:10;3.70;;;1.75;;
18507;SDS011;9383;50.928;12.116;2022-07-17T07:30:36;5.57;;;1.40;;
18507;SDS011;9383;50.928;12.116;2022-07-17T07:33:02;4.68;;;1.75;;
18507;SDS011;9383;50.928;12.116;2022-07-17T07:35:28;7.88;;;1.60;;
18507;SDS011;9383;50.928;12.116;2022-07-17T07:37:54;2.88;;;1.50;;
18507;SDS011;9383;50.928;12.116;2022-07-17T07:40:20;2.65;;;1.80;;
18507;SDS011;9383;50.928;12.116;2022-07-17T07:42:48;3.08;;;1.48;;
18507;SDS011;9383;50.928;12.116;2022-07-17T07:45:14;5.05;;;1.85;;
18507;SDS011;9383;50.928;12.116;2022-07-17T07:47:44;2.47;;;1.23;;
18507;SDS011;9383;50.928;12.116;2022-07-17T07:50:13;3.55;;;1.63;;
18507;SDS011;9383;50.928;12.116;2022-07-17T07:52:40;2.38;;;1.42;;
18507;SDS011;9383;50.928;12.116;2022-07-17T07:55:08;5.55;;;1.52;;
18507;SDS011;9383;50.928;12.116;2022-07-17T07:57:36;3.65;;;1.35;;
18507;SDS011;9383;50.928;12.116;2022-07-17T08:00:03;3.47;;;1.40;;
18507;SDS011;9383;50.928;12.116;2022-07-17T08:02:31;4.03;;;1.35;;
18507;SDS011;9383;50.928;12.116;2022-07-17T08:04:58;3.33;;;1.25;;
18507;SDS011;9383;50.928;12.116;2022-07-17T08:07:27;5.05;;;1.60;;
18507;SDS011;9383;50.928;12.116;2022-07-17T08:09:54;2.38;;;1.23;;
18507;SDS011;9383;50.928;12.116;2022-07-17T08:12:21;4.00;;;1.45;;
18507;SDS011;9383;50.928;12.116;2022-07-17T08:14:49;4.68;;;1.48;;
18507;SDS011;9383;50.928;12.116;2022-07-17T08:17:15;1.63;;;1.20;;
18507;SDS011;9383;50.928;12.116;2022-07-17T08:19:42;5.07;;;1.50;;
18507;SDS011;9383;50.928;12.116;2022-07-17T08:22:09;4.03;;;1.80;;
18507;SDS011;9383;50.928;12.116;2022-07-17T08:24:35;3.65;;;1.23;;
18507;SDS011;9383;50.928;12.116;2022-07-17T08:27:01;4.30;;;1.40;;
18507;SDS011;9383;50.928;12.116;2022-07-17T08:29:27;3.88;;;1.30;;
18507;SDS011;9383;50.928;12.116;2022-07-17T08:31:53;2.33;;;1.23;;
18507;SDS011;9383;50.928;12.116;2022-07-17T08:34:19;3.53;;;1.27;;
18507;SDS011;9383;50.928;12.116;2022-07-17T08:36:45;2.50;;;1.60;;
18507;SDS011;9383;50.928;12.116;2022-07-17T08:39:11;2.53;;;1.33;;
18507;SDS011;9383;50.928;12.116;2022-07-17T08:41:38;3.70;;;1.38;;
18507;SDS011;9383;50.928;12.116;2022-07-17T08:44:05;4.28;;;1.27;;
18507;SDS011;9383;50.928;12.116;2022-07-17T08:46:33;6.35;;;1.70;;
18507;SDS011;9383;50.928;12.116;2022-07-17T08:49:02;2.53;;;1.27;;
18507;SDS011;9383;50.928;12.116;2022-07-17T08:51:30;3.30;;;1.30;;
18507;SDS011;9383;50.928;12.116;2022-07-17T08:53:56;2.53;;;1.38;;
18507;SDS011;9383;50.928;12.116;2022-07-17T08:56:23;5.28;;;1.70;;
18507;SDS011;9383;50.928;12.116;2022-07-17T08:58:50;4.78;;;1.35;;
18507;SDS011;9383;50.928;12.116;2022-07-17T09:01:17;2.28;;;1.40;;
18507;SDS011;9383;50.928;12.116;2022-07-17T09:03:58;3.42;;;1.70;;
18507;SDS011;9383;50.928;12.116;2022-07-17T09:06:35;4.45;;;1.67;;
18507;SDS011;9383;50.928;12.116;2022-07-17T09:09:03;3.05;;;1.48;;
18507;SDS011;9383;50.928;12.116;2022-07-17T09:11:47;4.63;;;1.52;;
18507;SDS011;9383;50.928;12.116;2022-07-17T09:14:16;2.38;;;1.13;;
18507;SDS011;9383;50.928;12.116;2022-07-17T09:19:29;5.15;;;1.48;;
18507;SDS011;9383;50.928;12.116;2022-07-17T09:24:48;4.55;;;1.77;;
18507;SDS011;9383;50.928;12.116;2022-07-17T09:30:22;5.82;;;1.67;;
18507;SDS011;9383;50.928;12.116;2022-07-17T09:32:42;5.82;;;1.58;;
18507;SDS011;9383;50.928;12.116;2022-07-17T09:35:09;3.67;;;1.38;;
18507;SDS011;9383;50.928;12.116;2022-07-17T09:37:36;3.78;;;1.45;;
18507;SDS011;9383;50.928;12.116;2022-07-17T09:40:10;4.93;;;1.80;;
18507;SDS011;9383;50.928;12.116;2022-07-17T09:42:58;3.65;;;1.40;;
18507;SDS011;9383;50.928;12.116;2022-07-17T09:45:24;3.33;;;1.30;;
18507;SDS011;9383;50.928;12.116;2022-07-17T09:47:51;4.45;;;1.35;;
18507;SDS011;9383;50.928;12.116;2022-07-17T09:50:19;3.78;;;1.92;;
18507;SDS011;9383;50.928;12.116;2022-07-17T09:52:45;2.78;;;1.25;;
18507;SDS011;9383;50.928;12.116;2022-07-17T09:55:14;2.47;;;1.33;;
18507;SDS011;9383;50.928;12.116;2022-07-17T09:57:42;3.97;;;1.27;;
18507;SDS011;9383;50.928;12.116;2022-07-17T10:00:12;3.42;;;1.45;;
18507;SDS011;9383;50.928;12.116;2022-07-17T10:02:40;3.00;;;1.10;;
18507;SDS011;9383;50.928;12.116;2022-07-17T10:05:09;2.97;;;1.65;;
18507;SDS011;9383;50.928;12.116;2022-07-17T10:07:41;3.40;;;1.40;;
18507;SDS011;9383;50.928;12.116;2022-07-17T10:10:08;3.63;;;1.55;;
18507;SDS011;9383;50.928;12.116;2022-07-17T10:12:38;3.28;;;1.33;;
18507;SDS011;9383;50.928;12.116;2022-07-17T10:15:08;2.15;;;1.42;;
18507;SDS011;9383;50.928;12.116;2022-07-17T10:17:36;2.10;;;1.40;;
18507;SDS011;9383;50.928;12.116;2022-07-17T10:20:02;4.00;;;1.27;;
18507;SDS011;9383;50.928;12.116;2022-07-17T10:22:43;6.10;;;1.33;;
18507;SDS011;9383;50.928;12.116;2022-07-17T10:25:13;3.13;;;1.10;;
18507;SDS011;9383;50.928;12.116;2022-07-17T10:27:46;4.47;;;1.48;;
18507;SDS011;9383;50.928;12.116;2022-07-17T10:30:28;2.50;;;1.48;;
18507;SDS011;9383;50.928;12.116;2022-07-17T10:32:58;3.42;;;1.45;;
18507;SDS011;9383;50.928;12.116;2022-07-17T10:35:39;3.75;;;1.40;;
18507;SDS011;9383;50.928;12.116;2022-07-17T10:38:13;3.33;;;1.33;;
18507;SDS011;9383;50.928;12.116;2022-07-17T10:40:40;4.07;;;1.20;;
18507;SDS011;9383;50.928;12.116;2022-07-17T10:43:08;1.83;;;1.10;;
18507;SDS011;9383;50.928;12.116;2022-07-17T10:45:36;3.25;;;1.38;;
18507;SDS011;9383;50.928;12.116;2022-07-17T10:53:19;2.28;;;1.40;;
18507;SDS011;9383;50.928;12.116;2022-07-17T10:58:26;7.82;;;1.20;;
18507;SDS011;9383;50.928;12.116;2022-07-17T11:01:10;2.40;;;1.00;;
18507;SDS011;9383;50.928;12.116;2022-07-17T11:06:12;2.45;;;1.08;;
18507;SDS011;9383;50.928;12.116;2022-07-17T11:11:48;3.63;;;1.25;;
18507;SDS011;9383;50.928;12.116;2022-07-17T11:16:49;1.00;;;0.90;;
18507;SDS011;9383;50.928;12.116;2022-07-17T11:19:21;6.43;;;1.70;;
18507;SDS011;9383;50.928;12.116;2022-07-17T11:21:54;2.25;;;1.13;;
18507;SDS011;9383;50.928;12.116;2022-07-17T11:24:22;2.00;;;1.30;;
18507;SDS011;9383;50.928;12.116;2022-07-17T11:26:50;2.72;;;1.30;;
18507;SDS011;9383;50.928;12.116;2022-07-17T11:29:16;1.80;;;0.88;;
18507;SDS011;9383;50.928;12.116;2022-07-17T11:31:43;1.98;;;1.15;;
18507;SDS011;9383;50.928;12.116;2022-07-17T11:34:11;2.22;;;1.08;;
18507;SDS011;9383;50.928;12.116;2022-07-17T11:36:38;2.70;;;1.10;;
18507;SDS011;9383;50.928;12.116;2022-07-17T11:39:13;1.83;;;1.30;;
18507;SDS011;9383;50.928;12.116;2022-07-17T11:41:44;1.15;;;1.00;;
18507;SDS011;9383;50.928;12.116;2022-07-17T11:44:17;1.38;;;1.20;;
18507;SDS011;9383;50.928;12.116;2022-07-17T11:46:47;2.67;;;1.20;;
18507;SDS011;9383;50.928;12.116;2022-07-17T11:51:57;1.85;;;1.20;;
18507;SDS011;9383;50.928;12.116;2022-07-17T11:54:25;2.53;;;1.05;;
18507;SDS011;9383;50.928;12.116;2022-07-17T11:56:53;3.13;;;1.58;;
18507;SDS011;9383;50.928;12.116;2022-07-17T11:59:30;2.78;;;1.02;;
18507;SDS011;9383;50.928;12.116;2022-07-17T12:02:14;2.70;;;1.63;;
18507;SDS011;9383;50.928;12.116;2022-07-17T12:04:49;5.10;;;1.42;;
18507;SDS011;9383;50.928;12.116;2022-07-17T12:07:25;2.42;;;1.33;;
18507;SDS011;9383;50.928;12.116;2022-07-17T12:10:12;2.72;;;1.10;;
18507;SDS011;9383;50.928;12.116;2022-07-17T12:13:00;1.48;;;1.38;;
18507;SDS011;9383;50.928;12.116;2022-07-17T12:18:18;3.53;;;1.38;;
18507;SDS011;9383;50.928;12.116;2022-07-17T12:20:50;3.78;;;1.38;;
18507;SDS011;9383;50.928;12.116;2022-07-17T12:26:21;2.00;;;1.20;;
18507;SDS011;9383;50.928;12.116;2022-07-17T12:28:47;2.25;;;1.10;;
18507;SDS011;9383;50.928;12.116;2022-07-17T12:31:13;3.67;;;1.20;;
18507;SDS011;9383;50.928;12.116;2022-07-17T12:33:40;1.52;;;1.13;;
18507;SDS011;9383;50.928;12.116;2022-07-17T12:36:07;4.07;;;1.20;;
18507;SDS011;9383;50.928;12.116;2022-07-17T12:38:34;3.13;;;1.25;;
18507;SDS011;9383;50.928;12.116;2022-07-17T12:41:00;2.50;;;1.30;;
18507;SDS011;9383;50.928;12.116;2022-07-17T12:43:26;4.13;;;1.17;;
18507;SDS011;9383;50.928;12.116;2022-07-17T12:45:52;1.58;;;0.93;;
18507;SDS011;9383;50.928;12.116;2022-07-17T12:48:19;1.33;;;0.98;;
18507;SDS011;9383;50.928;12.116;2022-07-17T12:50:45;2.55;;;1.30;;
18507;SDS011;9383;50.928;12.116;2022-07-17T12:53:11;2.30;;;1.10;;
18507;SDS011;9383;50.928;12.116;2022-07-17T12:55:38;1.80;;;1.20;;
18507;SDS011;9383;50.928;12.116;2022-07-17T12:58:04;2.58;;;1.10;;
18507;SDS011;9383;50.928;12.116;2022-07-17T13:00:31;2.55;;;1.23;;
18507;SDS011;9383;50.928;12.116;2022-07-17T13:02:57;1.92;;;1.00;;
18507;SDS011;9383;50.928;12.116;2022-07-17T13:05:24;4.07;;;1.52;;
18507;SDS011;9383;50.928;12.116;2022-07-17T13:07:50;3.13;;;1.10;;
18507;SDS011;9383;50.928;12.116;2022-07-17T13:10:16;1.80;;;1.02;;
18507;SDS011;9383;50.928;12.116;2022-07-17T13:12:42;4.45;;;1.45;;
18507;SDS011;9383;50.928;12.116;2022-07-17T13:15:09;1.67;;;0.80;;
18507;SDS011;9383;50.928;12.116;2022-07-17T13:17:35;1.35;;;0.93;;
18507;SDS011;9383;50.928;12.116;2022-07-17T13:20:03;2.13;;;1.20;;
18507;SDS011;9383;50.928;12.116;2022-07-17T13:22:29;1.20;;;1.00;;
18507;SDS011;9383;50.928;12.116;2022-07-17T13:24:56;2.95;;;1.33;;
18507;SDS011;9383;50.928;12.116;2022-07-17T13:27:22;1.52;;;1.10;;
18507;SDS011;9383;50.928;12.116;2022-07-17T13:29:48;1.85;;;1.30;;
18507;SDS011;9383;50.928;12.116;2022-07-17T13:32:15;3.22;;;1.70;;
18507;SDS011;9383;50.928;12.116;2022-07-17T13:34:41;1.38;;;1.05;;
18507;SDS011;9383;50.928;12.116;2022-07-17T13:37:07;1.23;;;0.90;;
18507;SDS011;9383;50.928;12.116;2022-07-17T13:39:34;1.17;;;1.08;;
18507;SDS011;9383;50.928;12.116;2022-07-17T13:42:01;3.42;;;1.00;;
18507;SDS011;9383;50.928;12.116;2022-07-17T13:44:28;1.88;;;1.35;;
18507;SDS011;9383;50.928;12.116;2022-07-17T13:46:54;3.58;;;1.17;;
18507;SDS011;9383;50.928;12.116;2022-07-17T13:49:20;1.95;;;1.10;;
18507;SDS011;9383;50.928;12.116;2022-07-17T13:51:47;1.95;;;1.38;;
18507;SDS011;9383;50.928;12.116;2022-07-17T13:54:14;3.15;;;1.00;;
18507;SDS011;9383;50.928;12.116;2022-07-17T13:56:40;3.80;;;1.55;;
18507;SDS011;9383;50.928;12.116;2022-07-17T13:59:06;1.33;;;0.95;;
18507;SDS011;9383;50.928;12.116;2022-07-17T14:01:32;0.90;;;0.90;;
18507;SDS011;9383;50.928;12.116;2022-07-17T14:04:00;1.10;;;0.95;;
18507;SDS011;9383;50.928;12.116;2022-07-17T14:06:27;1.45;;;1.13;;
18507;SDS011;9383;50.928;12.116;2022-07-17T14:08:53;1.52;;;1.38;;
18507;SDS011;9383;50.928;12.116;2022-07-17T14:11:19;0.73;;;0.73;;
18507;SDS011;9383;50.928;12.116;2022-07-17T14:13:45;1.92;;;0.90;;
18507;SDS011;9383;50.928;12.116;2022-07-17T14:16:11;2.92;;;1.20;;
18507;SDS011;9383;50.928;12.116;2022-07-17T14:18:38;2.25;;;1.40;;
18507;SDS011;9383;50.928;12.116;2022-07-17T14:21:27;2.50;;;1.30;;
18507;SDS011;9383;50.928;12.116;2022-07-17T14:23:55;2.28;;;0.93;;
18507;SDS011;9383;50.928;12.116;2022-07-17T14:26:22;3.03;;;0.88;;
18507;SDS011;9383;50.928;12.116;2022-07-17T14:28:49;2.92;;;1.50;;
18507;SDS011;9383;50.928;12.116;2022-07-17T14:31:15;1.42;;;1.27;;
18507;SDS011;9383;50.928;12.116;2022-07-17T14:33:42;2.35;;;1.20;;
18507;SDS011;9383;50.928;12.116;2022-07-17T14:36:09;2.50;;;1.25;;
18507;SDS011;9383;50.928;12.116;2022-07-17T14:38:36;2.60;;;1.25;;
18507;SDS011;9383;50.928;12.116;2022-07-17T14:41:02;1.30;;;1.20;;
18507;SDS011;9383;50.928;12.116;2022-07-17T14:43:28;2.83;;;1.40;;
18507;SDS011;9383;50.928;12.116;2022-07-17T14:45:55;2.00;;;1.23;;
18507;SDS011;9383;50.928;12.116;2022-07-17T14:48:21;2.15;;;1.48;;
18507;SDS011;9383;50.928;12.116;2022-07-17T14:50:48;3.35;;;1.00;;
18507;SDS011;9383;50.928;12.116;2022-07-17T14:53:14;3.13;;;1.02;;
18507;SDS011;9383;50.928;12.116;2022-07-17T14:55:40;3.85;;;1.30;;
18507;SDS011;9383;50.928;12.116;2022-07-17T14:58:06;1.50;;;1.10;;
18507;SDS011;9383;50.928;12.116;2022-07-17T15:00:32;2.60;;;1.30;;
18507;SDS011;9383;50.928;12.116;2022-07-17T15:02:59;2.97;;;1.13;;
18507;SDS011;9383;50.928;12.116;2022-07-17T15:05:25;3.45;;;1.27;;
18507;SDS011;9383;50.928;12.116;2022-07-17T15:07:51;3.40;;;1.02;;
18507;SDS011;9383;50.928;12.116;2022-07-17T15:10:17;2.92;;;0.98;;
18507;SDS011;9383;50.928;12.116;2022-07-17T15:12:43;1.67;;;1.30;;
18507;SDS011;9383;50.928;12.116;2022-07-17T15:15:09;2.28;;;1.33;;
18507;SDS011;9383;50.928;12.116;2022-07-17T15:17:35;3.10;;;1.10;;
18507;SDS011;9383;50.928;12.116;2022-07-17T15:20:01;3.28;;;1.20;;
18507;SDS011;9383;50.928;12.116;2022-07-17T15:22:28;4.22;;;1.25;;
18507;SDS011;9383;50.928;12.116;2022-07-17T15:24:54;3.47;;;1.23;;